• pl
  • eng

Awiacja
TAF dla lotnisk wojskowych 07:30 22.08.2017

TAF EPCE 220500Z 2206/2215 VRB04KT 7000 SCT007 PROB40 TEMPO
2206/2215 3000 TSRA -SHRA BECMG 2208/2210 23008KT 9999 BKN010 =

TAF EPDA 220500Z 2206/2215 32010KT CAVOK TEMPO 2206/2215 5000 SHRA
BKN020CB PROB40 TEMPO 2206/2215 VRB15G25KT 3000 TSRA BKN010CB =

TAF EPDE 220500Z 2206/2215
27010KT 9999 SCT010 BKN027 BECMG 2210/2213 BKN040 PROB30 TEMPO
2211/2215 8000 SHRA BKN020CB=

TAF EPIR 220500Z 2206/2215 25012KT 9999 BKN010 BECMG 2208/2210 BKN025
=

TAF EPKS 220500Z 2206/2215 27012KT 9999 BKN020
BECMG 2209/2211 SCT033
PROB40 TEMPO 2209/2215 29015G25KT =

TAF EPLY 220500Z 2206/2215 26010KT 9999 BKN025 PROB40 2206/2208
SCT008 BKN015=

TAF EPMB 220500Z 2206/2215 25008KT 2000 BR BKN003 BECMG 2207/2208
26010KT 9999 BKN020 PROB40 TEMPO 2210/2215 SHRA BKN020CB PROB30
TEMPO 2211/2215 3000 TSRA BKN013CB=

TAF EPMI 220500Z 2206/2215 25010KT 9999 SCT006 BKN030 BECMG 2207/2208
BKN030 PROB40 TEMPO 2211/2215 5000 SHRA BKN015CB =

TAF EPMM 220500Z 2206/2215 27010KT 9999 BKN005 BKN020 BECMG 2207/2210
BKN025 TEMPO 2210/2215 6000 SHRA BKN015CB =

TAF EPOK 220500Z 2206/2215 28008KT 9999 SCT030 PROB40 TEMPO
2206/2212 6000 SHRA BKN020CB PROB30 TEMPO 2208/2215 VRB14G28KT
4000 TSRA BKN014CB =

TAF EPPR 220500Z 2206/2215 24010KT 9999 SCT025 TEMPO 2207/2215 SHRA
BKN015CB PROB40 TEMPO 2207/2215 VRB15G30KT 2000 TSRA BKN007
BKN010CB=

TAF EPPW 220500Z 2206/2215 25010KT 9999 BKN025 TEMPO 2206/2208 SCT005
BKN010 PROB30 TEMPO 2212/2215 SHRA BKN015CB =

TAF EPTM 220500Z 2206/2215 26008KT 9999 BKN030=
Awiacja.imgw.pl jest pogodowym serwisem informacyjnym
Instytutu Meteorologii i Gospodarki Wodnej Państwowego Instytutu Badawczego.
Copyright IMGW PIB 2009-2011© Wszelkie prawa zastrzeżone.